Time;durP1;ratioP1;P1;durP2;ratioP2;P2;SDS_P1;SDS_P2;PMS_P1;PMS_P2;Temp;Humidity;BMP_temperature;BMP_pressure;BME280_temperature;BME280_humidity;BME280_pressure;Samples;Min_cycle;Max_cycle;Signal;HPM_P1;HPM_P2
2022/04/09 00:02:13;;;;;;;;;;;5.70;99.90;;;;;;5017482;28;20011;-88
2022/04/09 00:04:38;;;;;;;;;;;5.70;99.90;;;;;;4998787;28;19975;-81
2022/04/09 00:07:04;;;;;;;;;;;5.70;99.90;;;;;;5013937;28;19928;-83
2022/04/09 00:09:30;;;;;;;;;;;5.70;99.90;;;;;;5034308;28;19925;-83
2022/04/09 00:11:55;;;;;;;;;;;5.80;99.90;;;;;;5031631;28;20019;-83
2022/04/09 00:14:21;;;;;;;;;;;5.70;99.90;;;;;;5018842;28;19928;-84
2022/04/09 00:16:47;;;;;;;;;;;5.70;99.90;;;;;;5034026;28;19920;-84
2022/04/09 00:19:12;;;;;;;;;;;5.90;99.90;;;;;;5018858;28;19925;-83
2022/04/09 00:21:39;;;;;;;;;;;5.80;99.90;;;;;;5018328;28;19967;-82
2022/04/09 00:24:05;;;;;;;;;;;5.90;99.90;;;;;;5000015;28;19971;-83
2022/04/09 00:26:30;;;;;;;;;;;5.80;99.90;;;;;;5006758;28;20336;-82
2022/04/09 00:28:56;;;;;;;;;;;5.70;99.90;;;;;;5018803;28;19928;-81
2022/04/09 00:31:21;;;;;;;;;;;5.70;99.90;;;;;;5029500;28;20007;-80
2022/04/09 00:33:47;;;;;;;;;;;5.70;99.90;;;;;;5031613;28;19921;-84
2022/04/09 00:36:13;;;;;;;;;;;5.60;99.90;;;;;;4992037;28;20384;-83
2022/04/09 00:38:38;;;;;;;;;;;5.60;99.90;;;;;;5015494;28;19925;-84
2022/04/09 00:41:04;;;;;;;;;;;5.60;99.90;;;;;;5001549;28;20371;-83
2022/04/09 00:43:30;;;;;;;;;;;5.60;99.90;;;;;;5015279;28;19928;-83
2022/04/09 00:45:55;;;;;;;;;;;5.50;99.90;;;;;;5001427;28;19921;-82
2022/04/09 00:48:21;;;;;;;;;;;5.50;99.90;;;;;;5016167;28;20299;-82
2022/04/09 00:50:47;;;;;;;;;;;5.50;99.90;;;;;;5002266;28;19924;-83
2022/04/09 00:53:15;;;;;;;;;;;5.50;99.90;;;;;;5017921;28;19932;-83
2022/04/09 00:58:52;;;;;;;;;;;5.40;99.90;;;;;;4944977;29;19922;-82
2022/04/09 01:01:18;;;;;;;;;;;5.40;99.90;;;;;;5009089;28;19992;-84
2022/04/09 01:03:44;;;;;;;;;;;5.40;99.90;;;;;;5033867;28;20106;-83
2022/04/09 01:06:11;;;;;;;;;;;5.40;99.90;;;;;;5013711;28;20365;-83
2022/04/09 01:08:37;;;;;;;;;;;5.40;99.90;;;;;;5026543;28;19929;-83
2022/04/09 01:11:02;;;;;;;;;;;5.30;99.90;;;;;;5029651;28;20446;-83
2022/04/09 01:13:29;;;;;;;;;;;5.30;99.90;;;;;;5027155;28;19927;-83
2022/04/09 01:15:54;;;;;;;;;;;5.30;99.90;;;;;;5033482;28;20262;-82
2022/04/09 01:18:20;;;;;;;;;;;5.40;99.90;;;;;;5017420;28;19974;-82
2022/04/09 01:20:45;;;;;;;;;;;5.40;99.90;;;;;;5029079;28;19921;-83
2022/04/09 01:23:11;;;;;;;;;;;5.30;99.90;;;;;;5018487;28;19921;-81
2022/04/09 01:25:40;;;;;;;;;;;5.40;99.90;;;;;;4992622;28;19921;-81
2022/04/09 01:28:06;;;;;;;;;;;5.50;99.90;;;;;;5034035;28;19920;-82
2022/04/09 01:30:31;;;;;;;;;;;5.50;99.90;;;;;;5024900;28;19927;-82
2022/04/09 01:32:57;;;;;;;;;;;5.40;99.90;;;;;;5031173;28;19979;-81
2022/04/09 01:35:22;;;;;;;;;;;5.30;99.90;;;;;;5034542;28;19924;-81
2022/04/09 01:37:48;;;;;;;;;;;5.40;99.90;;;;;;5010034;28;19921;-81
2022/04/09 01:40:14;;;;;;;;;;;5.40;99.90;;;;;;5015818;28;19924;-82
2022/04/09 01:42:39;;;;;;;;;;;5.50;99.90;;;;;;5017681;28;19935;-81
2022/04/09 01:45:08;;;;;;;;;;;5.60;99.90;;;;;;5017556;28;19921;-81
2022/04/09 01:47:35;;;;;;;;;;;5.60;99.90;;;;;;5034251;28;19970;-80
2022/04/09 01:50:01;;;;;;;;;;;5.60;99.90;;;;;;5034365;28;19928;-82
2022/04/09 01:52:26;;;;;;;;;;;5.50;99.90;;;;;;5004135;28;19921;-83
2022/04/09 01:54:52;;;;;;;;;;;5.50;99.90;;;;;;5031810;28;19925;-82
2022/04/09 01:57:17;;;;;;;;;;;5.50;99.90;;;;;;5033856;28;20365;-81
2022/04/09 01:59:44;;;;;;;;;;;5.50;99.90;;;;;;5018116;28;19968;-80
2022/04/09 02:02:10;;;;;;;;;;;5.50;99.90;;;;;;5013608;28;19925;-81
2022/04/09 02:04:35;;;;;;;;;;;5.50;99.90;;;;;;5023088;28;19921;-82
2022/04/09 02:07:01;;;;;;;;;;;5.50;99.90;;;;;;5012470;28;20011;-81
2022/04/09 02:09:27;;;;;;;;;;;5.50;99.90;;;;;;5024087;28;19921;-84
2022/04/09 02:11:52;;;;;;;;;;;5.60;99.90;;;;;;5017248;28;19928;-82
2022/04/09 02:14:18;;;;;;;;;;;5.60;99.90;;;;;;5033060;28;19920;-81
2022/04/09 02:16:44;;;;;;;;;;;5.60;99.90;;;;;;5016551;28;20331;-82
2022/04/09 02:19:10;;;;;;;;;;;5.60;99.90;;;;;;5016834;28;19921;-82
2022/04/09 02:21:36;;;;;;;;;;;5.60;99.90;;;;;;5016478;28;19998;-84
2022/04/09 02:24:02;;;;;;;;;;;5.50;99.90;;;;;;5011402;28;19960;-83
2022/04/09 02:26:27;;;;;;;;;;;5.60;99.90;;;;;;5021712;28;19968;-80
2022/04/09 02:28:53;;;;;;;;;;;5.60;99.90;;;;;;5037005;28;20378;-82
2022/04/09 02:31:20;;;;;;;;;;;5.60;99.90;;;;;;5035163;28;19928;-80
2022/04/09 02:33:45;;;;;;;;;;;5.50;99.90;;;;;;5030247;28;19925;-81
2022/04/09 02:36:12;;;;;;;;;;;5.50;99.90;;;;;;5014319;28;19986;-82
2022/04/09 02:38:38;;;;;;;;;;;5.60;99.90;;;;;;5037623;28;20281;-83
2022/04/09 02:41:04;;;;;;;;;;;5.60;99.90;;;;;;5036385;28;20560;-80
2022/04/09 02:43:29;;;;;;;;;;;5.30;99.90;;;;;;5020200;28;19928;-80
2022/04/09 02:45:55;;;;;;;;;;;5.20;99.90;;;;;;5016548;28;19940;-81
2022/04/09 02:48:21;;;;;;;;;;;5.00;99.90;;;;;;5037705;28;19928;-81
2022/04/09 02:50:48;;;;;;;;;;;4.90;99.90;;;;;;5003138;28;20270;-80
2022/04/09 02:53:14;;;;;;;;;;;4.90;99.90;;;;;;5033404;28;19963;-81
2022/04/09 02:55:39;;;;;;;;;;;5.00;99.90;;;;;;5037320;28;19990;-81
2022/04/09 02:58:05;;;;;;;;;;;5.10;99.90;;;;;;5030454;28;20334;-81
2022/04/09 03:00:30;;;;;;;;;;;5.10;99.90;;;;;;5018645;28;20366;-81
2022/04/09 03:02:56;;;;;;;;;;;5.20;99.90;;;;;;5014521;28;19944;-80
2022/04/09 03:05:22;;;;;;;;;;;5.30;99.90;;;;;;5019508;28;19960;-83
2022/04/09 03:07:47;;;;;;;;;;;5.30;99.90;;;;;;5033321;28;19925;-84
2022/04/09 03:10:13;;;;;;;;;;;5.30;99.90;;;;;;5016524;28;20323;-83
2022/04/09 03:12:45;;;;;;;;;;;5.40;99.90;;;;;;5035615;28;19920;-82
2022/04/09 03:15:11;;;;;;;;;;;5.40;99.90;;;;;;5020058;28;19921;-83
2022/04/09 03:17:37;;;;;;;;;;;5.50;99.90;;;;;;5011631;28;19935;-83
2022/04/09 03:20:03;;;;;;;;;;;5.50;99.90;;;;;;4994627;28;19931;-81
2022/04/09 03:22:29;;;;;;;;;;;5.50;99.90;;;;;;5032926;28;19920;-83
2022/04/09 03:24:58;;;;;;;;;;;5.50;99.90;;;;;;5035059;28;19946;-82
2022/04/09 03:27:23;;;;;;;;;;;5.60;99.90;;;;;;5018495;28;19928;-80
2022/04/09 03:29:49;;;;;;;;;;;5.60;99.90;;;;;;5018131;28;19924;-80
2022/04/09 03:32:15;;;;;;;;;;;5.30;99.90;;;;;;5018375;28;19921;-80
2022/04/09 03:34:40;;;;;;;;;;;5.20;99.90;;;;;;5036267;28;19921;-83
2022/04/09 03:37:06;;;;;;;;;;;5.10;99.90;;;;;;5014668;28;20361;-81
2022/04/09 03:39:32;;;;;;;;;;;5.20;99.90;;;;;;5012316;28;19974;-81
2022/04/09 03:41:57;;;;;;;;;;;5.20;99.90;;;;;;5015218;28;19924;-82
2022/04/09 03:44:23;;;;;;;;;;;5.10;99.90;;;;;;5015123;28;19926;-81
2022/04/09 03:46:48;;;;;;;;;;;5.20;99.90;;;;;;5034617;28;19976;-81
2022/04/09 03:49:15;;;;;;;;;;;5.20;99.90;;;;;;5030871;28;20320;-80
2022/04/09 03:51:40;;;;;;;;;;;5.10;99.90;;;;;;5037917;28;19991;-81
2022/04/09 03:54:06;;;;;;;;;;;5.10;99.90;;;;;;5018504;28;19968;-81
2022/04/09 03:56:32;;;;;;;;;;;5.10;99.90;;;;;;5035293;28;19925;-81
2022/04/09 03:58:57;;;;;;;;;;;5.10;99.90;;;;;;5035408;28;19935;-83
2022/04/09 04:01:24;;;;;;;;;;;5.30;99.90;;;;;;4992004;28;20007;-81
2022/04/09 04:03:51;;;;;;;;;;;5.30;99.90;;;;;;5033855;28;20285;-80
2022/04/09 04:06:16;;;;;;;;;;;5.40;99.90;;;;;;5019008;28;19963;-81
2022/04/09 04:08:42;;;;;;;;;;;5.40;99.90;;;;;;5020941;28;19965;-82
2022/04/09 04:11:08;;;;;;;;;;;5.50;99.90;;;;;;4994730;28;20361;-80
2022/04/09 04:13:38;;;;;;;;;;;5.50;99.90;;;;;;5021778;28;19924;-80
2022/04/09 04:16:04;;;;;;;;;;;5.50;99.90;;;;;;5000123;28;19968;-81
2022/04/09 04:18:29;;;;;;;;;;;5.60;99.90;;;;;;5034089;28;19924;-81
2022/04/09 04:20:55;;;;;;;;;;;5.60;99.90;;;;;;5028486;28;19928;-80
2022/04/09 04:23:21;;;;;;;;;;;5.50;99.90;;;;;;5035872;28;19970;-82
2022/04/09 04:25:47;;;;;;;;;;;5.50;99.90;;;;;;5034030;28;19970;-81
2022/04/09 04:28:12;;;;;;;;;;;5.50;99.90;;;;;;4999118;28;20019;-80
2022/04/09 04:30:38;;;;;;;;;;;5.40;99.90;;;;;;5026813;28;19932;-80
2022/04/09 04:33:03;;;;;;;;;;;5.40;99.90;;;;;;4990001;28;19925;-81
2022/04/09 04:35:29;;;;;;;;;;;5.50;99.90;;;;;;5012557;28;19921;-82
2022/04/09 04:37:54;;;;;;;;;;;5.50;99.90;;;;;;5018167;28;20269;-82
2022/04/09 04:40:20;;;;;;;;;;;5.40;99.90;;;;;;5002569;28;19943;-80
2022/04/09 04:42:48;;;;;;;;;;;5.40;99.90;;;;;;5007330;28;19920;-80
2022/04/09 04:45:14;;;;;;;;;;;5.50;99.90;;;;;;5034325;28;20556;-80
2022/04/09 04:47:43;;;;;;;;;;;5.60;99.90;;;;;;5014735;28;19951;-81
2022/04/09 04:50:09;;;;;;;;;;;5.60;99.90;;;;;;5024019;28;20003;-80
2022/04/09 04:52:34;;;;;;;;;;;5.60;99.90;;;;;;5035519;28;20001;-82
2022/04/09 04:55:00;;;;;;;;;;;5.70;99.90;;;;;;5032732;28;20102;-80
2022/04/09 04:57:26;;;;;;;;;;;5.70;99.90;;;;;;5007437;28;20012;-80
2022/04/09 04:59:51;;;;;;;;;;;5.70;99.90;;;;;;5026704;28;19986;-84
2022/04/09 05:02:17;;;;;;;;;;;5.70;99.90;;;;;;5034622;28;19999;-80
2022/04/09 05:04:42;;;;;;;;;;;5.60;99.90;;;;;;5018597;28;19924;-82
2022/04/09 05:07:08;;;;;;;;;;;5.50;99.90;;;;;;5031506;28;19920;-80
2022/04/09 05:09:35;;;;;;;;;;;5.50;99.90;;;;;;4990740;28;20440;-80
2022/04/09 05:12:00;;;;;;;;;;;5.50;99.90;;;;;;5034312;28;19928;-80
2022/04/09 05:14:26;;;;;;;;;;;5.50;99.90;;;;;;5022600;28;19925;-82
2022/04/09 05:16:52;;;;;;;;;;;5.50;99.90;;;;;;5028250;28;19925;-80
2022/04/09 05:19:17;;;;;;;;;;;5.50;99.90;;;;;;5034230;28;19966;-82
2022/04/09 05:21:45;;;;;;;;;;;5.50;99.90;;;;;;5032219;28;19921;-81
2022/04/09 05:24:11;;;;;;;;;;;5.50;99.90;;;;;;5009147;28;19928;-82
2022/04/09 05:26:37;;;;;;;;;;;5.60;99.90;;;;;;5014158;28;19928;-81
2022/04/09 05:29:02;;;;;;;;;;;5.60;99.90;;;;;;4995506;28;19924;-78
2022/04/09 05:31:28;;;;;;;;;;;5.60;99.90;;;;;;5010982;28;20334;-82
2022/04/09 05:33:54;;;;;;;;;;;5.60;99.90;;;;;;5011274;28;19921;-79
2022/04/09 05:36:20;;;;;;;;;;;5.70;99.90;;;;;;5028276;28;19960;-78
2022/04/09 05:38:45;;;;;;;;;;;5.70;99.90;;;;;;5012220;28;19998;-78
2022/04/09 05:41:11;;;;;;;;;;;5.80;99.90;;;;;;5012004;28;20043;-82
2022/04/09 05:43:37;;;;;;;;;;;6.00;99.90;;;;;;4988535;28;19921;-80
2022/04/09 05:46:02;;;;;;;;;;;6.10;99.90;;;;;;5029272;28;20423;-79
2022/04/09 05:48:28;;;;;;;;;;;6.10;99.90;;;;;;5000294;28;19956;-78
2022/04/09 05:50:53;;;;;;;;;;;6.00;99.90;;;;;;5017306;28;19925;-79
2022/04/09 05:53:19;;;;;;;;;;;5.90;99.90;;;;;;4994698;28;19971;-80
2022/04/09 05:55:44;;;;;;;;;;;5.90;99.90;;;;;;5008929;28;19921;-79
2022/04/09 05:58:11;;;;;;;;;;;5.80;99.90;;;;;;5010777;28;19974;-78
2022/04/09 06:00:36;;;;;;;;;;;5.90;99.90;;;;;;5022051;28;19959;-80
2022/04/09 06:03:03;;;;;;;;;;;5.90;99.90;;;;;;5039387;28;20708;-80
2022/04/09 06:05:29;;;;;;;;;;;5.90;99.90;;;;;;5023309;28;19975;-78
2022/04/09 06:07:54;;;;;;;;;;;6.00;99.90;;;;;;5024199;28;19925;-80
2022/04/09 06:10:20;;;;;;;;;;;5.90;99.90;;;;;;5011888;28;19931;-80
2022/04/09 06:12:45;;;;;;;;;;;6.10;99.90;;;;;;5029465;28;19924;-80
2022/04/09 06:15:11;;;;;;;;;;;6.10;99.90;;;;;;5013966;28;19921;-79
2022/04/09 06:17:38;;;;;;;;;;;6.10;99.90;;;;;;5021420;28;19970;-79
2022/04/09 06:20:04;;;;;;;;;;;6.20;99.90;;;;;;5028860;28;19924;-80
2022/04/09 06:22:30;;;;;;;;;;;6.20;99.90;;;;;;5037653;28;19939;-77
2022/04/09 06:24:55;;;;;;;;;;;6.30;99.90;;;;;;5034346;28;19921;-80
2022/04/09 06:27:21;;;;;;;;;;;6.30;99.90;;;;;;5023012;28;20348;-79
2022/04/09 06:29:46;;;;;;;;;;;6.40;99.90;;;;;;5035110;28;20004;-79
2022/04/09 06:32:12;;;;;;;;;;;6.40;99.90;;;;;;5026302;28;19929;-79
2022/04/09 06:34:38;;;;;;;;;;;6.30;99.90;;;;;;5043262;28;19921;-79
2022/04/09 06:37:04;;;;;;;;;;;6.20;99.90;;;;;;4992978;28;20406;-82
2022/04/09 06:39:30;;;;;;;;;;;6.10;99.90;;;;;;5020304;28;19932;-78
2022/04/09 06:41:56;;;;;;;;;;;6.00;99.90;;;;;;5021618;28;20063;-79
2022/04/09 06:44:21;;;;;;;;;;;5.90;99.90;;;;;;5020873;28;19995;-78
2022/04/09 06:46:47;;;;;;;;;;;5.90;99.90;;;;;;5037735;28;20284;-77
2022/04/09 06:49:13;;;;;;;;;;;5.90;99.90;;;;;;5034134;28;20007;-77
2022/04/09 06:51:39;;;;;;;;;;;6.00;99.90;;;;;;5032797;28;19931;-76
2022/04/09 06:54:05;;;;;;;;;;;6.10;99.90;;;;;;5037878;28;19924;-82
2022/04/09 06:56:30;;;;;;;;;;;6.30;99.90;;;;;;5019873;28;19925;-88
2022/04/09 06:58:56;;;;;;;;;;;6.30;99.90;;;;;;5021073;28;19931;-78
2022/04/09 07:01:21;;;;;;;;;;;6.40;99.90;;;;;;5020945;28;19963;-77
2022/04/09 07:03:47;;;;;;;;;;;6.50;99.90;;;;;;4997202;28;19925;-77
2022/04/09 07:06:15;;;;;;;;;;;6.50;99.90;;;;;;5020114;28;19924;-76
2022/04/09 07:08:41;;;;;;;;;;;6.60;99.90;;;;;;5021139;28;20007;-78
2022/04/09 07:11:07;;;;;;;;;;;6.60;99.90;;;;;;5022637;28;20002;-79
2022/04/09 07:13:33;;;;;;;;;;;6.70;99.90;;;;;;5028458;28;20376;-78
2022/04/09 07:15:58;;;;;;;;;;;6.70;99.90;;;;;;5031388;28;20376;-79
2022/04/09 07:18:24;;;;;;;;;;;6.80;99.90;;;;;;5031163;28;20388;-81
2022/04/09 07:20:50;;;;;;;;;;;6.90;99.90;;;;;;5020542;28;19929;-77
2022/04/09 07:23:15;;;;;;;;;;;6.90;99.90;;;;;;5030005;28;20369;-78
2022/04/09 07:25:44;;;;;;;;;;;6.90;99.90;;;;;;5036753;28;19928;-77
2022/04/09 07:28:09;;;;;;;;;;;7.00;99.90;;;;;;5035429;28;19942;-78
2022/04/09 07:30:35;;;;;;;;;;;6.90;99.90;;;;;;5031724;28;20369;-78
2022/04/09 07:33:01;;;;;;;;;;;7.00;99.90;;;;;;5032422;28;19921;-79
2022/04/09 07:35:26;;;;;;;;;;;7.00;99.90;;;;;;5035221;28;20333;-79
2022/04/09 07:37:58;;;;;;;;;;;7.00;99.90;;;;;;5018570;28;19972;-77
2022/04/09 07:40:24;;;;;;;;;;;7.00;99.90;;;;;;5019421;28;19980;-77
2022/04/09 07:42:50;;;;;;;;;;;7.10;99.90;;;;;;5019315;28;19996;-77
2022/04/09 07:45:17;;;;;;;;;;;7.20;99.90;;;;;;5036213;28;19924;-78
2022/04/09 07:47:43;;;;;;;;;;;7.30;99.90;;;;;;5033441;28;19931;-78
2022/04/09 07:50:10;;;;;;;;;;;7.30;99.90;;;;;;5027938;28;19970;-77
2022/04/09 07:52:40;;;;;;;;;;;7.40;99.90;;;;;;5017755;28;19921;-79
2022/04/09 07:55:06;;;;;;;;;;;7.40;99.90;;;;;;5036599;28;19927;-79
2022/04/09 07:57:32;;;;;;;;;;;7.60;99.90;;;;;;5018034;28;20371;-77
2022/04/09 07:59:58;;;;;;;;;;;7.70;99.90;;;;;;5019608;28;19924;-77
2022/04/09 08:02:24;;;;;;;;;;;7.80;99.90;;;;;;5019766;28;19932;-77
2022/04/09 08:04:50;;;;;;;;;;;7.90;99.90;;;;;;5031982;28;20405;-78
2022/04/09 08:07:15;;;;;;;;;;;7.90;99.90;;;;;;5033998;28;20029;-78
2022/04/09 08:09:43;;;;;;;;;;;7.80;99.90;;;;;;5035889;28;19920;-79
2022/04/09 08:12:11;;;;;;;;;;;7.80;99.90;;;;;;4997222;28;19925;-80
2022/04/09 08:14:37;;;;;;;;;;;7.90;99.90;;;;;;5012529;28;19974;-78
2022/04/09 08:17:03;;;;;;;;;;;7.90;99.90;;;;;;5010077;28;20328;-77
2022/04/09 08:19:29;;;;;;;;;;;8.00;99.90;;;;;;5019082;28;19924;-77
2022/04/09 08:21:56;;;;;;;;;;;8.00;99.90;;;;;;5016113;28;19927;-77
2022/04/09 08:24:21;;;;;;;;;;;7.90;99.90;;;;;;5019483;28;20258;-77
2022/04/09 08:26:47;;;;;;;;;;;8.00;99.90;;;;;;5023652;28;20035;-77
2022/04/09 08:29:18;;;;;;;;;;;8.10;99.90;;;;;;5017689;28;20325;-78
2022/04/09 08:31:47;;;;;;;;;;;8.10;99.90;;;;;;5032104;28;20251;-78
2022/04/09 08:34:12;;;;;;;;;;;8.10;99.90;;;;;;5019147;28;19974;-80
2022/04/09 08:36:38;;;;;;;;;;;8.10;99.90;;;;;;5029473;28;19921;-80
2022/04/09 08:39:03;;;;;;;;;;;8.10;99.90;;;;;;5002007;28;19925;-78
2022/04/09 08:41:29;;;;;;;;;;;8.10;99.90;;;;;;5030835;28;19928;-78
2022/04/09 08:43:54;;;;;;;;;;;8.20;99.90;;;;;;5002033;28;19928;-78
2022/04/09 08:46:20;;;;;;;;;;;8.20;99.90;;;;;;5034938;28;19996;-76
2022/04/09 08:48:47;;;;;;;;;;;8.20;99.90;;;;;;5023259;28;19921;-89
2022/04/09 08:51:12;;;;;;;;;;;8.20;99.90;;;;;;5032609;28;20150;-85
2022/04/09 08:53:40;;;;;;;;;;;8.30;99.90;;;;;;5018207;28;19917;-75
2022/04/09 08:56:06;;;;;;;;;;;8.30;99.90;;;;;;5044090;28;19924;-74
2022/04/09 08:58:31;;;;;;;;;;;8.20;99.90;;;;;;5014231;28;20391;-78
2022/04/09 09:00:57;;;;;;;;;;;8.10;99.90;;;;;;5022415;28;19921;-79
2022/04/09 09:03:23;;;;;;;;;;;8.10;99.90;;;;;;5034111;28;21530;-77
2022/04/09 09:05:52;;;;;;;;;;;7.50;99.90;;;;;;5030330;28;19970;-79
2022/04/09 09:08:34;;;;;;;;;;;7.20;99.90;;;;;;5026968;28;19947;-77
2022/04/09 09:11:00;;;;;;;;;;;7.10;99.90;;;;;;5034126;28;19928;-76
2022/04/09 09:13:25;;;;;;;;;;;7.20;99.90;;;;;;5030862;28;19920;-78
2022/04/09 09:15:52;;;;;;;;;;;7.00;99.90;;;;;;5010084;28;20281;-82
2022/04/09 09:18:19;;;;;;;;;;;6.90;99.90;;;;;;5027548;28;19920;-78
2022/04/09 09:21:03;;;;;;;;;;;7.00;99.90;;;;;;5022768;28;19929;-80
2022/04/09 09:23:33;;;;;;;;;;;7.00;99.90;;;;;;5003075;28;20546;-79
2022/04/09 09:25:59;;;;;;;;;;;7.00;99.90;;;;;;5015959;28;20024;-79
2022/04/09 09:28:26;;;;;;;;;;;6.80;99.90;;;;;;5018359;28;19921;-78
2022/04/09 09:30:52;;;;;;;;;;;6.60;99.90;;;;;;5012756;28;20003;-78
2022/04/09 09:33:17;;;;;;;;;;;6.60;99.90;;;;;;5034158;28;20023;-77
2022/04/09 09:35:47;;;;;;;;;;;6.80;99.90;;;;;;5014935;28;20501;-78
2022/04/09 09:38:20;;;;;;;;;;;7.10;99.90;;;;;;5008721;28;20505;-80
2022/04/09 09:40:46;;;;;;;;;;;7.40;99.90;;;;;;5010548;28;19921;-77
2022/04/09 09:43:15;;;;;;;;;;;7.50;99.90;;;;;;4995330;28;19928;-79
2022/04/09 09:45:41;;;;;;;;;;;7.60;99.90;;;;;;5012502;28;19921;-79
2022/04/09 09:48:23;;;;;;;;;;;7.70;99.90;;;;;;5031274;28;19921;-77
2022/04/09 09:50:49;;;;;;;;;;;7.70;99.90;;;;;;5026455;28;19972;-77
2022/04/09 09:53:15;;;;;;;;;;;7.80;99.90;;;;;;5010282;28;19964;-79
2022/04/09 09:55:44;;;;;;;;;;;7.80;99.90;;;;;;5008080;28;19967;-77
2022/04/09 09:58:11;;;;;;;;;;;7.80;99.90;;;;;;5030961;28;19925;-78
2022/04/09 10:00:38;;;;;;;;;;;7.80;99.90;;;;;;5014128;28;19921;-77
2022/04/09 10:03:05;;;;;;;;;;;7.90;99.90;;;;;;5030915;28;20270;-82
2022/04/09 10:05:31;;;;;;;;;;;8.00;99.90;;;;;;5013631;28;19947;-77
2022/04/09 10:07:56;;;;;;;;;;;8.20;99.90;;;;;;5030851;28;20000;-77
2022/04/09 10:10:26;;;;;;;;;;;8.10;99.90;;;;;;5014872;28;19921;-79
2022/04/09 10:12:54;;;;;;;;;;;8.20;99.90;;;;;;5030945;28;19928;-77
2022/04/09 10:15:20;;;;;;;;;;;8.40;99.90;;;;;;5010113;28;19920;-79
2022/04/09 10:17:46;;;;;;;;;;;8.40;99.90;;;;;;5019925;28;20267;-80
2022/04/09 10:20:11;;;;;;;;;;;8.50;99.90;;;;;;4997013;28;20382;-82
2022/04/09 10:22:45;;;;;;;;;;;8.60;99.90;;;;;;5030695;28;19920;-80
2022/04/09 10:25:11;;;;;;;;;;;8.50;99.90;;;;;;5030284;28;19925;-79
2022/04/09 10:27:37;;;;;;;;;;;8.60;99.90;;;;;;5014437;28;20369;-83
2022/04/09 10:30:17;;;;;;;;;;;8.50;99.90;;;;;;5014237;28;20332;-81
2022/04/09 10:32:53;;;;;;;;;;;8.60;99.90;;;;;;5013306;28;20026;-81
2022/04/09 10:35:25;;;;;;;;;;;8.70;99.90;;;;;;5024689;28;20030;-81
2022/04/09 10:38:06;;;;;;;;;;;8.80;99.90;;;;;;5012512;28;19975;-82
2022/04/09 10:40:32;;;;;;;;;;;8.90;99.90;;;;;;5022028;28;19952;-82
2022/04/09 10:42:58;;;;;;;;;;;8.90;99.90;;;;;;5005001;28;19921;-82
2022/04/09 10:45:27;;;;;;;;;;;8.90;99.90;;;;;;4993212;28;19921;-82
2022/04/09 10:48:11;;;;;;;;;;;9.20;99.90;;;;;;5015160;28;20004;-82
2022/04/09 10:50:56;;;;;;;;;;;9.10;99.90;;;;;;5015332;28;19921;-81
2022/04/09 10:53:23;;;;;;;;;;;9.10;99.90;;;;;;5009649;28;19928;-81
2022/04/09 10:56:07;;;;;;;;;;;9.10;99.90;;;;;;5010771;28;19922;-81
2022/04/09 10:58:53;;;;;;;;;;;8.70;99.90;;;;;;5025550;28;19926;-84
2022/04/09 11:01:37;;;;;;;;;;;8.60;99.90;;;;;;5014683;28;19921;-82
2022/04/09 11:04:22;;;;;;;;;;;8.60;99.90;;;;;;4998105;28;20282;-82
2022/04/09 11:06:59;;;;;;;;;;;9.00;99.90;;;;;;4998094;28;20350;-80
2022/04/09 11:09:25;;;;;;;;;;;9.10;99.90;;;;;;5011812;28;19921;-80
2022/04/09 11:12:01;;;;;;;;;;;9.50;99.90;;;;;;5013840;28;20393;-80
2022/04/09 11:14:26;;;;;;;;;;;9.50;99.90;;;;;;5013380;28;19921;-82
2022/04/09 11:16:52;;;;;;;;;;;9.20;99.90;;;;;;5007360;28;19940;-79
2022/04/09 11:19:21;;;;;;;;;;;8.90;99.90;;;;;;4996685;28;19983;-91
2022/04/09 11:21:50;;;;;;;;;;;8.90;99.90;;;;;;4983966;28;19921;-85
2022/04/09 11:24:17;;;;;;;;;;;8.70;99.90;;;;;;4997354;28;19921;-85
2022/04/09 11:26:53;;;;;;;;;;;8.70;99.90;;;;;;5013211;28;19921;-89
2022/04/09 11:29:19;;;;;;;;;;;8.70;99.90;;;;;;5013870;28;20016;-85
2022/04/09 11:31:46;;;;;;;;;;;8.60;99.90;;;;;;5011486;28;20053;-82
2022/04/09 11:34:12;;;;;;;;;;;9.00;99.90;;;;;;5014394;28;20274;-82
2022/04/09 11:36:37;;;;;;;;;;;9.00;99.90;;;;;;5012886;28;20032;-83
2022/04/09 11:39:03;;;;;;;;;;;8.80;99.90;;;;;;4995032;28;20007;-84
2022/04/09 11:41:29;;;;;;;;;;;8.70;99.90;;;;;;4992718;28;20390;-84
2022/04/09 11:43:55;;;;;;;;;;;8.70;99.90;;;;;;5008483;28;19964;-84
2022/04/09 11:46:21;;;;;;;;;;;8.60;99.90;;;;;;5002213;28;19925;-83
2022/04/09 11:48:59;;;;;;;;;;;8.70;99.90;;;;;;5011204;28;20278;-86
2022/04/09 11:51:25;;;;;;;;;;;8.70;99.90;;;;;;5010588;28;19967;-84
2022/04/09 11:53:50;;;;;;;;;;;8.80;99.90;;;;;;5011098;28;19925;-84
2022/04/09 11:56:16;;;;;;;;;;;8.80;99.90;;;;;;5011540;28;19929;-84
2022/04/09 11:58:41;;;;;;;;;;;9.10;99.90;;;;;;5030438;28;20009;-84
2022/04/09 12:01:09;;;;;;;;;;;9.40;99.90;;;;;;5015717;28;19921;-85
2022/04/09 12:03:35;;;;;;;;;;;9.50;99.90;;;;;;5016503;28;19925;-85
2022/04/09 12:06:01;;;;;;;;;;;9.90;99.90;;;;;;5032274;28;19921;-86
2022/04/09 12:08:28;;;;;;;;;;;9.90;99.90;;;;;;5016031;28;19929;-85
2022/04/09 12:10:57;;;;;;;;;;;9.90;99.90;;;;;;5014748;28;19979;-84
2022/04/09 12:13:27;;;;;;;;;;;10.10;99.90;;;;;;4997235;28;20378;-85
2022/04/09 12:15:53;;;;;;;;;;;10.10;99.90;;;;;;5007839;28;19929;-85
2022/04/09 12:18:26;;;;;;;;;;;10.10;99.90;;;;;;5014179;28;20015;-87
2022/04/09 12:20:52;;;;;;;;;;;10.00;99.90;;;;;;5031874;28;19944;-84
2022/04/09 12:23:27;;;;;;;;;;;10.00;99.90;;;;;;5012182;28;19921;-86
2022/04/09 12:25:53;;;;;;;;;;;10.20;99.90;;;;;;5013959;28;19925;-82
2022/04/09 12:28:22;;;;;;;;;;;10.20;99.90;;;;;;5017066;28;19975;-81
2022/04/09 12:30:48;;;;;;;;;;;10.40;99.90;;;;;;5015934;28;20310;-85
2022/04/09 12:33:13;;;;;;;;;;;10.70;99.90;;;;;;5031916;28;19929;-85
2022/04/09 12:35:39;;;;;;;;;;;10.60;99.90;;;;;;4999596;28;19925;-84
2022/04/09 12:38:05;;;;;;;;;;;10.80;99.90;;;;;;5031361;28;19928;-84
2022/04/09 12:40:32;;;;;;;;;;;10.80;99.90;;;;;;5016097;28;20028;-85
2022/04/09 12:42:59;;;;;;;;;;;10.90;99.90;;;;;;5031199;28;20042;-85
2022/04/09 12:45:27;;;;;;;;;;;10.80;99.90;;;;;;5032477;28;19920;-85
2022/04/09 12:47:56;;;;;;;;;;;11.00;99.90;;;;;;5031594;28;19931;-86
2022/04/09 12:50:24;;;;;;;;;;;10.80;99.90;;;;;;5024280;28;19952;-85
2022/04/09 12:52:50;;;;;;;;;;;10.90;99.90;;;;;;5008395;28;20285;-83
2022/04/09 12:55:16;;;;;;;;;;;10.90;99.90;;;;;;5007350;28;19932;-83
2022/04/09 12:57:42;;;;;;;;;;;10.80;99.90;;;;;;5019390;28;19925;-84
2022/04/09 13:00:08;;;;;;;;;;;10.90;99.90;;;;;;5020902;28;19927;-84
2022/04/09 13:02:36;;;;;;;;;;;11.10;99.90;;;;;;5013625;28;19928;-83
2022/04/09 13:05:05;;;;;;;;;;;11.40;99.90;;;;;;5024662;28;20390;-84
2022/04/09 13:07:31;;;;;;;;;;;11.30;99.90;;;;;;4996140;28;20429;-84
2022/04/09 13:09:56;;;;;;;;;;;11.40;99.90;;;;;;5031214;28;19928;-85
2022/04/09 13:12:22;;;;;;;;;;;11.50;99.90;;;;;;5015620;28;19925;-84
2022/04/09 13:14:47;;;;;;;;;;;11.20;99.90;;;;;;5009515;28;19979;-83
2022/04/09 13:17:13;;;;;;;;;;;11.20;99.90;;;;;;5010931;28;19928;-85
2022/04/09 13:19:38;;;;;;;;;;;11.40;99.90;;;;;;5035185;28;19932;-84
2022/04/09 13:22:04;;;;;;;;;;;11.60;99.90;;;;;;5015000;28;20377;-84
2022/04/09 13:24:30;;;;;;;;;;;11.70;99.90;;;;;;5005985;28;20012;-83
2022/04/09 13:26:55;;;;;;;;;;;11.80;99.90;;;;;;5031823;28;19928;-84
2022/04/09 13:29:21;;;;;;;;;;;11.90;99.90;;;;;;4998862;28;19921;-82
2022/04/09 13:31:46;;;;;;;;;;;11.90;99.90;;;;;;5014790;28;20262;-83
2022/04/09 13:34:14;;;;;;;;;;;11.40;99.90;;;;;;5015397;28;19976;-84
2022/04/09 13:36:40;;;;;;;;;;;11.60;99.90;;;;;;5030991;28;19921;-81
2022/04/09 13:39:06;;;;;;;;;;;11.70;99.90;;;;;;5030307;28;20366;-80
2022/04/09 13:41:32;;;;;;;;;;;12.00;99.90;;;;;;5031408;28;20289;-82
2022/04/09 13:43:58;;;;;;;;;;;12.30;99.90;;;;;;5026463;28;19922;-84
2022/04/09 13:46:23;;;;;;;;;;;11.70;99.90;;;;;;4994353;28;19929;-82
2022/04/09 13:48:49;;;;;;;;;;;11.00;99.90;;;;;;5011090;28;19976;-82
2022/04/09 13:51:15;;;;;;;;;;;10.80;99.90;;;;;;5006145;28;19921;-82
2022/04/09 13:53:40;;;;;;;;;;;10.20;99.90;;;;;;5011278;28;19972;-84
2022/04/09 13:56:06;;;;;;;;;;;9.70;99.90;;;;;;5010342;28;19925;-84
2022/04/09 13:58:31;;;;;;;;;;;9.30;99.90;;;;;;4985222;28;19933;-84
2022/04/09 14:00:57;;;;;;;;;;;9.40;99.90;;;;;;5002916;28;19929;-82
2022/04/09 14:03:23;;;;;;;;;;;10.10;99.90;;;;;;5005280;28;20589;-83
2022/04/09 14:05:48;;;;;;;;;;;10.70;99.90;;;;;;5008575;28;19921;-84
2022/04/09 14:08:15;;;;;;;;;;;11.30;99.90;;;;;;5006307;28;19929;-79
2022/04/09 14:10:41;;;;;;;;;;;11.20;99.90;;;;;;4990994;28;19925;-83
2022/04/09 14:13:07;;;;;;;;;;;11.80;99.90;;;;;;4995564;28;19925;-83
2022/04/09 14:15:33;;;;;;;;;;;11.80;99.90;;;;;;4995306;28;19936;-78
2022/04/09 14:17:58;;;;;;;;;;;12.10;99.90;;;;;;4991525;28;19926;-83
2022/04/09 14:20:24;;;;;;;;;;;11.10;99.90;;;;;;4993674;28;19925;-85
2022/04/09 14:22:49;;;;;;;;;;;10.70;99.90;;;;;;4994364;28;19922;-84
2022/04/09 14:25:15;;;;;;;;;;;10.10;99.90;;;;;;5010822;28;19929;-85
2022/04/09 14:27:40;;;;;;;;;;;10.30;99.90;;;;;;4980212;28;19936;-84
2022/04/09 14:30:06;;;;;;;;;;;10.90;99.90;;;;;;4975809;28;19932;-85